KCLE/CLE METAR and TAF weather

Enter ICAO airport designator
Station Type Date Time Source
KCLE METAR 2021/04/13 06:51 UTC NOAA

KCLE 130651Z 24005KT 10SM BKN060 11/08 A2995 RMK AO2 SLP158 T01060083


Station Type Date Time Source
KCLE Decoded METAR 2021/04/13 06:51 UTC NOAA

CLEVELAND-HOPKINS INTERNATIONAL , OH, United States (KCLE) 41-24N 081-51W 236M
Apr 13, 2021 - 02:51 AM EDT / 2021.04.13 0651 UTC
Wind: from the WSW (240 degrees) at 6 MPH (5 KT):0
Visibility: 10 mile(s):0
Sky conditions: mostly cloudy
Temperature: 51.1 F (10.6 C)
Dew Point: 46.9 F (8.3 C)
Relative Humidity: 85%
Pressure (altimeter): 29.95 in. Hg (1014 hPa)
ob: KCLE 130651Z 24005KT 10SM BKN060 11/08 A2995 RMK AO2 SLP158 T01060083
cycle: 7

Station Type Date Time Source
KCLE TAF 2021/04/13 06:42 UTC NOAA

TAF KCLE 130541Z 1306/1412 22004KT P6SM BKN050
FM130700 23005KT P6SM SCT250
TEMPO 1310/1312 4SM BR
FM131400 32004KT P6SM SCT250
FM131900 25008KT P6SM SCT250

Example: see airport list